Current | Forecast
Updated: 7:30 AM EEST on June 21, 2018
Observed at L'viv, Poland
Temperature 19°C
Humidity 83%
Dew Point 16°C
Wind Variable at 4 km/h
Pressure 1019 hPa (Steady)
Conditions Clear
Visibility -
UV N/A
Clouds
Yesterday's Maximum 26°C
Yesterday's Minimum 16°C approx.
Yesterday's Cooling Degree Days 5 approx.
Sunrise4:14 AM CEST
Sunset8:41 PM CEST
Moon Rise1:25 PM CEST
Moon Set1:05 AM CEST
Moon PhaseMoon Phase
First Quarter
Raw METARMETAR UKLL 210430Z VRB01MPS CAVOK 19/16 Q1019 R13/CLRD// NOSIG


Monday
. High: 62° F.
Tuesday
. High: 57° F.
Wednesday
. High: 75° F.
Thursday
. High: 77° F.
Friday
. High: 69° F.
Saturday
. High: 64° F.
Sunday
. High: 69° F.
Monday
. High: 73° F.

Units: English | Metric

Find the Weather for any City, State or Zipcode, or Country:

U.S. State List | Severe Weather | Tropical Storms | Ski Conditions
United States | Canada | Central America | South America | Asia | Europe | Australia | Africa | Islands

Weather Underground

© Copyright 2018
The Weather Company, LLC